Flight Track Log - Related Links

Times and Time Zones

All times are in EST time to prevent confusion due to time zone crossing. See the FIN505 flight status page for this flight to view local times or setup timezone preferences in your user account.

Time Position Orientation Groundspeed Altitude Reporting Facility
EST Latitude Longitude Course Direction KTS MPH feet Rate Location/Type
Tue 06:49:49 AM 60.3912 25.0342 25° Northeast  Level Estimated
Tue 06:50:49 AM 60.4817 25.1215 25° Northeast  Level Estimated
Tue 06:51:49 AM 60.5722 25.2092 26° Northeast  Level Estimated
Tue 06:52:49 AM 60.6626 25.2974 26° Northeast  Level Estimated
Tue 06:53:49 AM 60.7529 25.3862 26° Northeast  Level Estimated
Tue 06:54:49 AM 60.8433 25.4754 26° Northeast  Level Estimated
Tue 06:55:49 AM 60.9335 25.5651 26° Northeast  Level Estimated
Tue 06:56:49 AM 61.0237 25.6553 26° Northeast  Level Estimated
Tue 06:57:49 AM 61.1138 25.7461 26° Northeast  Level Estimated
Tue 06:58:49 AM 61.2038 25.8374 26° Northeast  Level Estimated
Tue 06:59:49 AM 61.2938 25.9292 26° Northeast  Level Estimated
Tue 07:00:49 AM 61.3838 26.0215 26° Northeast  Level Estimated
Tue 07:01:49 AM 61.4736 26.1143 26° Northeast  Level Estimated
Tue 07:02:49 AM 61.5634 26.2077 26° Northeast  Level Estimated
Tue 07:03:49 AM 61.6532 26.3017 27° Northeast  Level Estimated
Tue 07:04:49 AM 61.7428 26.3962 27° Northeast  Level Estimated
Tue 07:05:49 AM 61.8324 26.4912 27° Northeast  Level Estimated
Tue 07:06:49 AM 61.9220 26.5868 27° Northeast  Level Estimated
Tue 07:07:49 AM 62.0115 26.6829 27° Northeast  Level Estimated
Tue 07:08:49 AM 62.1009 26.7796 27° Northeast  Level Estimated
Tue 07:09:49 AM 62.1902 26.8769 27° Northeast  Level Estimated
Tue 07:10:49 AM 62.2795 26.9748 27° Northeast  Level Estimated
Tue 07:11:49 AM 62.3687 27.0732 27° Northeast  Level Estimated
Tue 07:12:49 AM 62.4578 27.1723 27° Northeast  Level Estimated
Tue 07:13:49 AM 62.5469 27.2719 27° Northeast  Level Estimated
Tue 07:14:49 AM 62.6359 27.3721 27° Northeast  Level Estimated
Tue 07:15:49 AM 62.7248 27.4730 28° Northeast  Level Estimated
Tue 07:16:49 AM 62.8136 27.5744 28° Northeast  Level Estimated
Tue 07:17:49 AM 62.9024 27.6764 28° Northeast  Level Estimated
Tue 07:18:49 AM 62.9911 27.7791 28° Northeast  Level Estimated
Tue 07:19:49 AM 63.0797 27.8824 208° Southwest  Level Estimated
Tue 07:20:49 AM 62.9911 27.7791 28° Northeast  Level Estimated
Tue 07:21:49 AM 63.0797 27.8824 208° Southwest  Level Estimated
Tue 07:22:49 AM 62.9911 27.7791 28° Northeast  Level Estimated
Tue 07:23:49 AM 63.0797 27.8824 208° Southwest  Level Estimated
Tue 07:24:49 AM 62.9911 27.7791 28° Northeast  Level Estimated
Tue 07:25:49 AM 63.0797 27.8824 208° Southwest  Level Estimated
Tue 07:26:49 AM 62.9911 27.7791 28° Northeast  Level Estimated
Tue 07:27:49 AM 63.0797 27.8824 208° Southwest  Level Estimated
Tue 07:28:49 AM 62.9911 27.7791 28° Northeast  Level Estimated
Tue 07:29:49 AM 63.0797 27.8824 208° Southwest  Level Estimated
Tue 07:30:49 AM 62.9911 27.7791 28° Northeast  Level Estimated
Tue 07:31:49 AM 63.0797 27.8824 28° Northeast  Level Estimated

Login

Don't have an account? Register now (free) for customized features, flight alerts, and more!